Time;durP1;ratioP1;P1;durP2;ratioP2;P2;SDS_P1;SDS_P2;PMS_P1;PMS_P2;Temp;Humidity;BMP_temperature;BMP_pressure;BME280_temperature;BME280_humidity;BME280_pressure;Samples;Min_cycle;Max_cycle;Signal;HPM_P1;HPM_P2
2023/05/27 00:00:34;;;;;;;0.60;0.60;;;19.70;32.20;;;;;;5088010;28;20156;-82
2023/05/27 00:03:00;;;;;;;0.65;0.60;;;19.70;32.30;;;;;;5103836;28;20203;-82
2023/05/27 00:05:29;;;;;;;0.40;0.40;;;19.70;32.20;;;;;;5104143;28;20147;-82
2023/05/27 00:07:57;;;;;;;0.57;0.50;;;19.70;32.30;;;;;;5103618;28;20172;-82
2023/05/27 00:10:24;;;;;;;0.35;0.30;;;19.70;32.30;;;;;;5103883;28;20332;-82
2023/05/27 00:12:51;;;;;;;0.63;0.60;;;19.70;32.30;;;;;;5086372;28;20246;-82
2023/05/27 00:15:18;;;;;;;1.77;0.57;;;19.70;32.40;;;;;;5120809;28;20156;-81
2023/05/27 00:17:43;;;;;;;0.55;0.50;;;19.70;32.40;;;;;;5103271;28;20259;-82
2023/05/27 00:20:10;;;;;;;0.88;0.40;;;19.70;32.40;;;;;;5103146;28;20191;-82
2023/05/27 00:22:36;;;;;;;0.63;0.50;;;19.70;32.50;;;;;;5122010;28;20149;-82
2023/05/27 00:25:05;;;;;;;0.55;0.43;;;19.70;32.40;;;;;;5086697;28;20164;-82
2023/05/27 00:27:31;;;;;;;0.73;0.50;;;19.70;32.40;;;;;;5087404;28;20757;-81
2023/05/27 00:29:57;;;;;;;0.47;0.47;;;19.70;32.50;;;;;;5103912;28;20203;-82
2023/05/27 00:32:23;;;;;;;0.50;0.45;;;19.70;32.40;;;;;;5122103;28;20153;-82
2023/05/27 00:34:49;;;;;;;0.50;0.40;;;19.70;32.50;;;;;;5122146;28;20160;-82
2023/05/27 00:37:14;;;;;;;0.40;0.40;;;19.70;32.50;;;;;;5103201;28;20542;-82
2023/05/27 00:39:40;;;;;;;0.57;0.57;;;19.70;32.50;;;;;;5104150;28;20174;-82
2023/05/27 00:42:07;;;;;;;0.82;0.50;;;19.70;32.60;;;;;;5103853;28;20164;-81
2023/05/27 00:44:35;;;;;;;0.82;0.45;;;19.70;32.60;;;;;;5103443;28;20167;-81
2023/05/27 00:47:01;;;;;;;0.47;0.47;;;19.70;32.60;;;;;;5103325;28;20161;-81
2023/05/27 00:49:27;;;;;;;1.15;0.50;;;19.70;32.60;;;;;;5104084;28;20243;-81
2023/05/27 00:51:52;;;;;;;0.43;0.40;;;19.70;32.60;;;;;;5120985;28;20200;-81
2023/05/27 00:54:18;;;;;;;0.43;0.40;;;19.70;32.70;;;;;;5120857;28;20309;-80
2023/05/27 00:56:46;;;;;;;0.50;0.50;;;19.70;32.70;;;;;;5103480;28;20175;-81
2023/05/27 00:59:14;;;;;;;0.93;0.60;;;19.70;33.40;;;;;;5103848;28;20164;-81
2023/05/27 01:01:43;;;;;;;0.55;0.55;;;19.70;32.70;;;;;;5103166;28;20217;-81
2023/05/27 01:04:12;;;;;;;0.80;0.50;;;19.60;32.70;;;;;;5103668;28;20235;-81
2023/05/27 01:06:55;;;;;;;0.60;0.60;;;19.70;32.70;;;;;;5121013;28;20179;-81
2023/05/27 01:09:39;;;;;;;0.65;0.60;;;19.60;32.70;;;;;;5102805;28;20530;-81
2023/05/27 01:12:11;;;;;;;0.80;0.50;;;19.70;32.80;;;;;;5102752;28;20203;-80
2023/05/27 01:14:41;;;;;;;0.70;0.50;;;19.70;32.70;;;;;;5086229;28;20713;-81
2023/05/27 01:17:07;;;;;;;0.60;0.60;;;19.70;32.80;;;;;;5120973;28;20170;-81
2023/05/27 01:19:34;;;;;;;0.68;0.50;;;19.60;32.80;;;;;;5103265;28;20160;-81
2023/05/27 01:22:02;;;;;;;0.50;0.50;;;19.60;32.70;;;;;;5085835;28;20160;-81
2023/05/27 01:24:29;;;;;;;0.52;0.50;;;19.70;32.80;;;;;;5121573;28;20160;-81
2023/05/27 01:26:56;;;;;;;0.80;0.55;;;19.60;32.70;;;;;;5120676;28;20215;-81
2023/05/27 01:29:22;;;;;;;0.90;0.60;;;19.60;32.80;;;;;;5085829;28;20301;-81
2023/05/27 01:31:59;;;;;;;0.70;0.60;;;19.60;32.90;;;;;;5101998;28;20187;-81
2023/05/27 01:34:31;;;;;;;0.45;0.43;;;19.60;32.80;;;;;;5103154;28;20207;-81
2023/05/27 01:36:59;;;;;;;1.27;0.60;;;19.60;32.80;;;;;;5120425;28;20707;-81
2023/05/27 01:39:25;;;;;;;0.88;0.60;;;19.60;32.90;;;;;;5085782;28;20218;-81
2023/05/27 01:41:50;;;;;;;1.05;0.50;;;19.60;32.80;;;;;;5101980;28;20229;-81
2023/05/27 01:44:17;;;;;;;0.75;0.73;;;19.60;32.90;;;;;;5101897;28;20563;-81
2023/05/27 01:46:43;;;;;;;1.35;0.50;;;19.60;32.90;;;;;;5084975;28;20213;-81
2023/05/27 01:49:11;;;;;;;0.45;0.40;;;19.60;33.00;;;;;;5102613;28;20152;-81
2023/05/27 01:51:37;;;;;;;0.55;0.52;;;19.60;33.00;;;;;;5102126;28;20183;-81
2023/05/27 01:54:04;;;;;;;0.50;0.40;;;19.60;33.00;;;;;;5102339;28;20499;-81
2023/05/27 01:56:31;;;;;;;0.75;0.52;;;19.60;33.00;;;;;;5102608;28;20237;-81
2023/05/27 01:58:57;;;;;;;0.52;0.52;;;19.60;32.90;;;;;;5101434;28;20156;-81
2023/05/27 02:01:25;;;;;;;0.55;0.50;;;19.60;33.00;;;;;;5102587;28;20156;-81
2023/05/27 02:03:51;;;;;;;0.70;0.50;;;19.60;33.00;;;;;;5120835;28;20148;-81
2023/05/27 02:06:17;;;;;;;0.60;0.52;;;19.60;33.00;;;;;;5085852;28;20148;-81
2023/05/27 02:08:42;;;;;;;0.68;0.57;;;19.60;33.00;;;;;;5102232;28;20167;-81
2023/05/27 02:11:10;;;;;;;0.57;0.55;;;19.60;33.00;;;;;;5102039;28;20215;-81
2023/05/27 02:13:37;;;;;;;0.90;0.52;;;19.60;33.00;;;;;;5120335;28;20156;-81
2023/05/27 02:16:04;;;;;;;0.57;0.57;;;19.60;33.00;;;;;;5086652;28;20513;-80
2023/05/27 02:18:31;;;;;;;0.68;0.52;;;19.60;33.10;;;;;;5118974;28;20172;-81
2023/05/27 02:20:56;;;;;;;0.57;0.50;;;19.60;33.10;;;;;;5115758;28;20221;-82
2023/05/27 02:23:22;;;;;;;0.95;0.45;;;19.60;33.10;;;;;;5116987;28;20158;-81
2023/05/27 02:25:49;;;;;;;0.57;0.50;;;19.60;33.10;;;;;;5081394;28;20641;-82
2023/05/27 02:28:14;;;;;;;0.65;0.50;;;19.50;33.10;;;;;;5076960;28;20330;-82
2023/05/27 02:30:42;;;;;;;0.50;0.50;;;19.60;33.10;;;;;;5074917;28;20601;-81
2023/05/27 02:33:08;;;;;;;1.35;0.60;;;19.60;33.10;;;;;;5075965;28;20156;-81
2023/05/27 02:35:33;;;;;;;0.80;0.60;;;19.60;33.10;;;;;;5074659;28;20209;-82
2023/05/27 02:38:00;;;;;;;0.40;0.40;;;19.50;33.20;;;;;;5074525;28;20658;-82
2023/05/27 02:40:27;;;;;;;1.05;0.52;;;19.60;33.30;;;;;;5076212;28;20157;-81
2023/05/27 02:42:53;;;;;;;0.40;0.40;;;19.60;33.20;;;;;;5091570;28;20174;-81
2023/05/27 02:45:19;;;;;;;1.02;0.60;;;19.60;33.20;;;;;;5075974;28;20153;-82
2023/05/27 02:47:45;;;;;;;0.47;0.47;;;19.60;33.20;;;;;;5075925;28;20158;-81
2023/05/27 02:50:11;;;;;;;0.40;0.40;;;19.50;33.20;;;;;;5058199;28;20230;-81
2023/05/27 02:52:36;;;;;;;0.73;0.55;;;19.60;33.30;;;;;;5074478;28;20173;-81
2023/05/27 02:55:03;;;;;;;0.55;0.50;;;19.60;33.30;;;;;;5074287;28;20158;-82
2023/05/27 02:57:30;;;;;;;0.68;0.50;;;19.60;33.30;;;;;;5074682;28;20157;-81
2023/05/27 02:59:56;;;;;;;0.98;0.70;;;19.60;33.30;;;;;;5074468;28;20169;-81
2023/05/27 03:02:22;;;;;;;0.77;0.60;;;19.60;33.40;;;;;;5074635;28;20175;-82
2023/05/27 03:04:48;;;;;;;0.50;0.50;;;19.50;33.40;;;;;;5091064;28;20239;-82
2023/05/27 03:07:14;;;;;;;0.90;0.60;;;19.60;33.50;;;;;;5074522;28;20554;-82
2023/05/27 03:09:40;;;;;;;1.08;0.60;;;19.60;33.50;;;;;;5091528;28;20177;-82
2023/05/27 03:12:05;;;;;;;0.40;0.40;;;19.50;33.30;;;;;;5061265;28;20192;-81
2023/05/27 03:14:32;;;;;;;0.47;0.40;;;19.50;33.40;;;;;;5078979;28;20158;-82
2023/05/27 03:16:58;;;;;;;0.63;0.50;;;19.60;33.40;;;;;;5077745;28;20153;-81
2023/05/27 03:19:24;;;;;;;0.63;0.55;;;19.60;33.50;;;;;;5061373;28;20194;-81
2023/05/27 03:21:50;;;;;;;0.60;0.60;;;19.50;33.40;;;;;;5061227;28;20161;-82
2023/05/27 03:24:16;;;;;;;0.50;0.50;;;19.50;33.40;;;;;;5061176;28;20200;-82
2023/05/27 03:26:42;;;;;;;1.35;0.70;;;19.50;33.50;;;;;;5061019;28;20365;-82
2023/05/27 03:29:08;;;;;;;0.70;0.60;;;19.50;33.50;;;;;;5077760;28;20222;-82
2023/05/27 03:31:35;;;;;;;0.75;0.50;;;19.50;33.60;;;;;;5078674;28;20189;-82
2023/05/27 03:34:02;;;;;;;0.57;0.50;;;19.50;33.50;;;;;;5061031;28;20168;-81
2023/05/27 03:36:28;;;;;;;0.60;0.60;;;19.50;33.60;;;;;;5077919;28;20199;-82
2023/05/27 03:38:55;;;;;;;0.85;0.50;;;19.50;33.60;;;;;;5078106;28;20169;-81
2023/05/27 03:41:23;;;;;;;2.50;0.57;;;19.50;33.60;;;;;;5077906;28;20154;-82
2023/05/27 03:43:48;;;;;;;0.85;0.68;;;19.50;33.50;;;;;;5060335;28;20172;-82
2023/05/27 03:46:14;;;;;;;0.68;0.55;;;19.50;33.70;;;;;;5078860;28;20522;-83
2023/05/27 03:48:40;;;;;;;0.77;0.50;;;19.40;33.60;;;;;;5077149;28;20161;-82
2023/05/27 03:51:06;;;;;;;1.35;0.52;;;19.50;33.60;;;;;;5077863;28;20189;-82
2023/05/27 03:53:32;;;;;;;0.93;0.68;;;19.50;33.70;;;;;;5061059;28;20184;-82
2023/05/27 03:55:58;;;;;;;0.63;0.50;;;19.50;33.70;;;;;;5076966;28;20185;-82
2023/05/27 03:58:24;;;;;;;0.65;0.57;;;19.50;33.70;;;;;;5060281;28;20539;-82
2023/05/27 04:00:51;;;;;;;0.80;0.40;;;19.50;33.70;;;;;;5077056;28;20169;-83
2023/05/27 04:03:17;;;;;;;1.00;0.43;;;19.50;33.70;;;;;;5077204;28;20215;-83
2023/05/27 04:05:42;;;;;;;0.57;0.55;;;19.40;33.70;;;;;;5077156;28;20161;-82
2023/05/27 04:08:08;;;;;;;0.93;0.63;;;19.50;33.70;;;;;;5079091;28;20523;-82
2023/05/27 04:10:34;;;;;;;0.63;0.60;;;19.50;33.80;;;;;;5076822;28;20216;-82
2023/05/27 04:13:01;;;;;;;0.50;0.50;;;19.50;33.80;;;;;;5078510;28;20157;-83
2023/05/27 04:15:27;;;;;;;0.75;0.65;;;19.40;33.70;;;;;;5077161;28;20172;-83
2023/05/27 04:17:55;;;;;;;4.32;0.77;;;19.50;33.80;;;;;;5093908;28;21042;-82
2023/05/27 04:20:21;;;;;;;0.70;0.68;;;19.50;33.80;;;;;;5076797;28;20192;-83
2023/05/27 04:22:49;;;;;;;0.95;0.52;;;19.50;33.90;;;;;;5059471;28;20158;-83
2023/05/27 04:25:15;;;;;;;0.65;0.47;;;19.50;33.90;;;;;;5077785;28;20221;-82
2023/05/27 04:27:42;;;;;;;0.60;0.57;;;19.50;34.00;;;;;;5076433;28;20225;-83
2023/05/27 04:30:08;;;;;;;0.57;0.50;;;19.40;33.90;;;;;;5060017;28;20178;-83
2023/05/27 04:32:37;;;;;;;0.77;0.60;;;19.40;33.90;;;;;;5093203;28;20161;-83
2023/05/27 04:35:07;;;;;;;0.40;0.40;;;19.50;34.00;;;;;;5060571;28;20164;-82
2023/05/27 04:37:36;;;;;;;0.40;0.40;;;19.50;33.90;;;;;;5077450;28;20157;-82
2023/05/27 04:40:04;;;;;;;0.43;0.40;;;19.40;33.90;;;;;;5078146;28;20217;-83
2023/05/27 04:42:32;;;;;;;0.50;0.50;;;19.40;34.00;;;;;;5059478;28;20161;-83
2023/05/27 04:44:58;;;;;;;0.60;0.60;;;19.40;34.00;;;;;;5075458;28;20167;-83
2023/05/27 04:47:24;;;;;;;0.60;0.47;;;19.50;34.10;;;;;;5079764;28;20161;-82
2023/05/27 04:49:51;;;;;;;0.70;0.60;;;19.40;34.00;;;;;;5096016;28;20187;-83
2023/05/27 04:52:21;;;;;;;0.57;0.57;;;19.40;34.00;;;;;;5077832;28;20189;-83
2023/05/27 04:54:47;;;;;;;1.00;0.68;;;19.50;34.10;;;;;;5079329;28;20174;-83
2023/05/27 04:57:17;;;;;;;0.93;0.50;;;19.50;34.10;;;;;;5095705;28;20149;-82
2023/05/27 04:59:58;;;;;;;0.50;0.50;;;19.50;34.10;;;;;;5094386;28;20161;-83
2023/05/27 05:02:27;;;;;;;1.60;0.60;;;19.50;34.10;;;;;;5095141;28;20169;-83
2023/05/27 05:04:52;;;;;;;0.40;0.40;;;19.40;34.10;;;;;;5057570;28;20188;-83
2023/05/27 05:07:19;;;;;;;0.80;0.50;;;19.50;34.20;;;;;;5057923;28;20165;-82
2023/05/27 05:09:45;;;;;;;0.75;0.60;;;19.50;34.20;;;;;;5081599;28;20164;-83
2023/05/27 05:12:11;;;;;;;0.82;0.60;;;19.40;34.10;;;;;;5096309;28;20180;-83
2023/05/27 05:14:36;;;;;;;0.52;0.52;;;19.50;34.10;;;;;;5095948;28;20160;-83
2023/05/27 05:17:02;;;;;;;0.93;0.55;;;19.50;34.20;;;;;;5078341;28;20696;-83
2023/05/27 05:19:27;;;;;;;0.60;0.50;;;19.50;34.20;;;;;;5096246;28;20561;-82
2023/05/27 05:21:53;;;;;;;1.88;0.60;;;19.50;34.20;;;;;;5096502;28;20167;-83
2023/05/27 05:24:21;;;;;;;0.40;0.40;;;19.50;34.10;;;;;;5097758;28;20622;-82
2023/05/27 05:26:46;;;;;;;0.45;0.45;;;19.50;34.20;;;;;;5111563;28;20309;-82
2023/05/27 05:29:12;;;;;;;0.88;0.70;;;19.50;34.20;;;;;;5112439;28;20538;-82
2023/05/27 05:31:39;;;;;;;0.38;0.38;;;19.50;34.20;;;;;;5098366;28;20181;-83
2023/05/27 05:34:05;;;;;;;0.47;0.40;;;19.50;34.10;;;;;;5099483;28;20150;-82
2023/05/27 05:36:30;;;;;;;0.50;0.50;;;19.50;34.10;;;;;;5082347;28;20528;-82
2023/05/27 05:38:56;;;;;;;1.27;0.60;;;19.60;34.20;;;;;;5099294;28;20152;-82
2023/05/27 05:41:22;;;;;;;0.77;0.52;;;19.60;34.10;;;;;;5082505;28;20612;-82
2023/05/27 05:43:47;;;;;;;0.60;0.60;;;19.60;34.10;;;;;;5098965;28;20183;-82
2023/05/27 05:46:13;;;;;;;0.52;0.52;;;19.60;34.10;;;;;;5099087;28;20168;-82
2023/05/27 05:48:39;;;;;;;0.88;0.57;;;19.60;34.10;;;;;;5098759;28;20164;-81
2023/05/27 05:51:06;;;;;;;0.50;0.50;;;19.60;34.10;;;;;;5098145;28;20188;-82
2023/05/27 05:53:32;;;;;;;0.75;0.47;;;19.60;34.10;;;;;;5099028;28;20153;-82
2023/05/27 05:55:57;;;;;;;0.40;0.40;;;19.60;34.10;;;;;;5099705;28;20176;-82
2023/05/27 05:58:23;;;;;;;0.90;0.40;;;19.60;34.10;;;;;;5097795;28;20172;-82
2023/05/27 06:00:49;;;;;;;0.65;0.52;;;19.60;34.10;;;;;;5097156;28;20553;-82
2023/05/27 06:03:14;;;;;;;0.50;0.50;;;19.70;34.10;;;;;;5096700;28;20240;-82
2023/05/27 06:05:40;;;;;;;0.60;0.57;;;19.70;34.10;;;;;;5096049;28;20187;-82
2023/05/27 06:08:06;;;;;;;0.85;0.60;;;19.70;34.10;;;;;;5096569;28;20561;-82
2023/05/27 06:10:31;;;;;;;0.85;0.52;;;19.70;34.00;;;;;;5094252;28;20192;-82
2023/05/27 06:12:57;;;;;;;0.65;0.60;;;19.70;34.00;;;;;;5094255;28;20519;-82
2023/05/27 06:15:23;;;;;;;0.50;0.47;;;19.80;34.00;;;;;;5093799;28;20512;-82
2023/05/27 06:17:48;;;;;;;1.00;0.50;;;19.80;34.00;;;;;;5076817;28;20546;-82
2023/05/27 06:20:14;;;;;;;0.65;0.60;;;19.80;33.80;;;;;;5076448;28;20581;-82
2023/05/27 06:22:40;;;;;;;0.77;0.68;;;19.80;33.80;;;;;;5094742;28;20145;-82
2023/05/27 06:25:06;;;;;;;0.73;0.50;;;19.80;33.90;;;;;;5093648;28;20165;-82
2023/05/27 06:27:31;;;;;;;0.60;0.60;;;19.80;33.90;;;;;;5106166;28;20269;-82
2023/05/27 06:29:57;;;;;;;1.73;0.60;;;19.90;33.90;;;;;;5115740;28;20168;-82
2023/05/27 06:32:23;;;;;;;0.82;0.68;;;19.90;33.90;;;;;;5115690;28;20615;-82
2023/05/27 06:34:49;;;;;;;0.50;0.50;;;19.90;33.90;;;;;;5097140;28;20167;-82
2023/05/27 06:37:14;;;;;;;0.60;0.50;;;19.90;33.90;;;;;;5097684;28;20229;-82
2023/05/27 06:39:40;;;;;;;0.75;0.63;;;19.80;33.90;;;;;;5113632;28;20156;-82
2023/05/27 06:42:06;;;;;;;0.40;0.40;;;19.90;33.90;;;;;;5115349;28;20167;-82
2023/05/27 06:44:32;;;;;;;0.75;0.52;;;19.90;33.90;;;;;;5097816;28;20168;-82
2023/05/27 06:46:57;;;;;;;0.47;0.40;;;19.90;33.80;;;;;;5100902;28;20523;-82
2023/05/27 06:49:23;;;;;;;0.50;0.50;;;19.90;33.90;;;;;;5118311;28;20649;-82
2023/05/27 06:51:48;;;;;;;0.50;0.50;;;20.00;33.90;;;;;;5101553;28;20642;-82
2023/05/27 06:54:15;;;;;;;1.25;0.70;;;19.90;33.90;;;;;;5119720;28;20160;-82
2023/05/27 06:56:41;;;;;;;0.57;0.43;;;20.00;33.80;;;;;;5118710;28;20178;-82
2023/05/27 06:59:06;;;;;;;0.40;0.40;;;20.10;33.80;;;;;;5117857;28;20611;-82
2023/05/27 07:01:32;;;;;;;0.40;0.40;;;20.10;33.80;;;;;;5118739;28;20206;-81
2023/05/27 07:03:58;;;;;;;0.60;0.52;;;20.10;33.70;;;;;;5117601;27;20175;-82
2023/05/27 07:06:24;;;;;;;1.08;0.50;;;20.10;33.90;;;;;;5120177;28;20164;-82
2023/05/27 07:08:49;;;;;;;0.77;0.63;;;20.10;33.70;;;;;;5118935;28;20664;-82
2023/05/27 07:11:16;;;;;;;2.05;0.50;;;20.00;33.90;;;;;;5118446;28;20180;-82
2023/05/27 07:13:42;;;;;;;0.60;0.50;;;20.00;33.90;;;;;;5119745;27;20659;-82
2023/05/27 07:16:07;;;;;;;0.32;0.30;;;20.00;34.10;;;;;;5101061;28;20223;-82
2023/05/27 07:18:33;;;;;;;0.82;0.65;;;19.90;34.20;;;;;;5119645;28;20523;-82
2023/05/27 07:20:59;;;;;;;0.65;0.40;;;19.90;34.20;;;;;;5118559;28;20153;-82
2023/05/27 07:23:25;;;;;;;0.57;0.38;;;19.90;34.20;;;;;;5117443;28;20186;-83
2023/05/27 07:25:50;;;;;;;0.70;0.50;;;19.90;34.90;;;;;;5119448;28;20192;-83
2023/05/27 07:28:16;;;;;;;0.68;0.50;;;19.80;34.20;;;;;;5099539;28;20690;-81
2023/05/27 07:30:42;;;;;;;0.90;0.70;;;19.90;34.30;;;;;;5098237;28;20531;-82
2023/05/27 07:33:09;;;;;;;0.80;0.45;;;19.90;34.30;;;;;;5083035;28;20243;-82
2023/05/27 07:35:34;;;;;;;1.00;0.60;;;20.00;34.20;;;;;;5098960;28;20152;-83
2023/05/27 07:38:02;;;;;;;0.50;0.47;;;19.90;34.20;;;;;;5101320;28;20171;-82
2023/05/27 07:40:28;;;;;;;0.50;0.50;;;20.00;34.20;;;;;;5099823;28;20145;-82
2023/05/27 07:42:53;;;;;;;0.50;0.50;;;19.90;34.20;;;;;;5099180;28;20199;-82
2023/05/27 07:45:19;;;;;;;0.75;0.50;;;19.80;34.20;;;;;;5098907;28;20185;-82
2023/05/27 07:47:46;;;;;;;0.77;0.60;;;19.90;34.60;;;;;;5082370;28;20275;-81
2023/05/27 07:50:13;;;;;;;0.52;0.52;;;19.90;34.60;;;;;;5082307;28;20611;-82
2023/05/27 07:52:39;;;;;;;0.57;0.57;;;19.90;34.70;;;;;;5082262;28;20161;-82
2023/05/27 07:55:06;;;;;;;0.60;0.40;;;19.90;34.80;;;;;;5099757;28;20145;-82
2023/05/27 07:57:31;;;;;;;0.68;0.50;;;19.90;35.00;;;;;;5097620;28;20212;-82
2023/05/27 07:59:57;;;;;;;0.43;0.43;;;19.90;35.10;;;;;;5098711;28;20187;-82
2023/05/27 08:02:23;;;;;;;0.70;0.60;;;19.80;35.10;;;;;;5098410;28;20247;-82
2023/05/27 08:04:49;;;;;;;0.52;0.43;;;19.80;35.20;;;;;;5097688;28;20172;-82
2023/05/27 08:07:15;;;;;;;0.70;0.50;;;19.80;35.00;;;;;;5098804;28;20184;-82
2023/05/27 08:09:40;;;;;;;0.50;0.40;;;19.90;34.90;;;;;;5100197;28;20622;-82
2023/05/27 08:12:06;;;;;;;1.35;0.75;;;19.90;34.70;;;;;;5099210;28;20249;-82
2023/05/27 08:14:32;;;;;;;0.57;0.30;;;19.90;34.70;;;;;;5098722;28;20680;-82
2023/05/27 08:16:58;;;;;;;0.43;0.30;;;19.90;34.70;;;;;;5097911;28;20160;-82
2023/05/27 08:19:24;;;;;;;0.57;0.50;;;19.90;34.70;;;;;;5082193;28;20160;-82
2023/05/27 08:21:49;;;;;;;0.73;0.50;;;19.90;34.60;;;;;;5082482;28;20578;-82
2023/05/27 08:24:16;;;;;;;0.70;0.40;;;19.90;34.60;;;;;;5099116;28;20157;-82
2023/05/27 08:26:42;;;;;;;1.45;0.55;;;19.90;34.80;;;;;;5109645;27;20733;-82
2023/05/27 08:29:08;;;;;;;0.60;0.40;;;19.90;34.70;;;;;;5123147;27;20238;-82
2023/05/27 08:31:38;;;;;;;0.85;0.55;;;19.90;34.80;;;;;;5106241;27;20290;-82
2023/05/27 08:34:03;;;;;;;0.40;0.40;;;19.90;34.80;;;;;;5121660;27;20171;-82
2023/05/27 08:36:32;;;;;;;1.50;0.40;;;19.90;34.70;;;;;;5104327;27;20534;-82
2023/05/27 08:38:59;;;;;;;0.43;0.40;;;19.90;34.70;;;;;;5121834;27;20148;-82
2023/05/27 08:41:26;;;;;;;0.88;0.50;;;19.80;34.70;;;;;;5118664;28;20251;-82
2023/05/27 08:43:52;;;;;;;0.57;0.50;;;19.80;34.70;;;;;;5120140;28;20152;-82
2023/05/27 08:46:18;;;;;;;0.52;0.40;;;19.90;34.70;;;;;;5100416;28;20167;-82
2023/05/27 08:48:44;;;;;;;0.35;0.35;;;19.80;34.70;;;;;;5100674;28;20172;-82
2023/05/27 08:51:10;;;;;;;1.15;0.50;;;19.90;34.70;;;;;;5121702;28;20658;-82
2023/05/27 08:53:35;;;;;;;0.47;0.40;;;19.80;34.60;;;;;;5103518;28;20607;-83
2023/05/27 08:56:01;;;;;;;0.63;0.50;;;19.90;34.60;;;;;;5104910;28;21634;-82
2023/05/27 08:58:27;;;;;;;0.50;0.47;;;19.80;34.70;;;;;;5109438;27;20156;-83
2023/05/27 09:00:53;;;;;;;1.15;0.50;;;19.70;34.80;;;;;;5121794;27;20545;-83
2023/05/27 09:03:19;;;;;;;1.23;0.40;;;19.70;35.00;;;;;;5102563;28;20175;-82
2023/05/27 09:05:46;;;;;;;1.00;0.50;;;19.80;35.10;;;;;;5100890;28;20156;-82
2023/05/27 09:08:12;;;;;;;0.60;0.50;;;19.70;35.20;;;;;;5118550;28;20188;-83
2023/05/27 09:10:39;;;;;;;3.17;0.50;;;19.70;35.40;;;;;;5117828;28;20207;-82
2023/05/27 09:13:04;;;;;;;0.93;0.50;;;19.80;35.40;;;;;;5082223;28;20251;-83
2023/05/27 09:15:31;;;;;;;0.57;0.40;;;19.90;35.70;;;;;;5103524;28;20221;-82
2023/05/27 09:17:57;;;;;;;1.17;0.50;;;19.90;35.80;;;;;;5088202;27;20171;-82
2023/05/27 09:20:26;;;;;;;0.63;0.45;;;19.90;35.50;;;;;;5107732;27;20164;-81
2023/05/27 09:22:57;;;;;;;0.50;0.40;;;19.90;35.90;;;;;;5105946;27;20251;-82
2023/05/27 09:25:25;;;;;;;0.60;0.40;;;19.90;36.00;;;;;;5122749;27;20148;-82
2023/05/27 09:27:51;;;;;;;2.50;0.75;;;19.90;36.00;;;;;;5123596;27;20214;-83
2023/05/27 09:30:18;;;;;;;0.60;0.40;;;19.90;36.20;;;;;;5141552;27;20163;-82
2023/05/27 09:32:45;;;;;;;0.63;0.50;;;19.90;36.30;;;;;;5123192;27;20234;-82
2023/05/27 09:35:11;;;;;;;0.60;0.50;;;19.90;36.20;;;;;;5122942;27;20201;-82
2023/05/27 09:37:36;;;;;;;0.32;0.28;;;19.90;36.30;;;;;;5121294;28;20183;-82
2023/05/27 09:40:08;;;;;;;0.35;0.35;;;19.90;36.30;;;;;;5121334;27;20185;-82
2023/05/27 09:42:43;;;;;;;0.77;0.50;;;19.90;36.50;;;;;;5120600;27;20159;-82
2023/05/27 09:45:13;;;;;;;0.60;0.40;;;19.90;36.40;;;;;;5139794;27;20155;-83
2023/05/27 09:47:40;;;;;;;0.80;0.38;;;19.90;36.60;;;;;;5119106;28;20159;-84
2023/05/27 09:50:09;;;;;;;0.47;0.40;;;19.90;36.70;;;;;;5084114;28;20170;-81
2023/05/27 09:52:37;;;;;;;0.73;0.50;;;19.90;36.80;;;;;;5100988;28;20152;-83
2023/05/27 09:55:03;;;;;;;1.55;0.35;;;19.90;37.00;;;;;;5099035;28;20567;-82
2023/05/27 09:57:29;;;;;;;0.82;0.40;;;19.90;36.80;;;;;;5100409;28;20593;-82
2023/05/27 09:59:55;;;;;;;1.50;0.38;;;19.90;37.10;;;;;;5083210;28;20224;-82
2023/05/27 10:02:21;;;;;;;0.38;0.38;;;19.90;37.10;;;;;;5121608;28;20167;-82
2023/05/27 10:04:48;;;;;;;1.23;0.65;;;20.00;37.10;;;;;;5099095;28;20170;-82
2023/05/27 10:07:15;;;;;;;1.08;0.60;;;19.90;37.40;;;;;;5106715;28;20159;-82
2023/05/27 10:09:41;;;;;;;0.30;0.30;;;19.90;37.20;;;;;;5098803;28;20507;-82
2023/05/27 10:12:06;;;;;;;0.45;0.40;;;19.90;37.50;;;;;;5098301;28;20202;-82
2023/05/27 10:14:32;;;;;;;0.73;0.50;;;19.90;37.60;;;;;;5128657;28;20516;-82
2023/05/27 10:16:58;;;;;;;1.20;0.70;;;19.90;37.60;;;;;;5137565;28;20159;-82
2023/05/27 10:19:25;;;;;;;0.68;0.55;;;19.90;37.60;;;;;;5119598;27;20170;-82
2023/05/27 10:21:50;;;;;;;1.17;0.65;;;19.90;37.60;;;;;;5124370;27;20159;-82
2023/05/27 10:24:16;;;;;;;0.50;0.40;;;19.90;37.60;;;;;;5120828;28;20167;-82
2023/05/27 10:26:43;;;;;;;0.82;0.60;;;19.90;37.60;;;;;;5102390;28;20208;-82
2023/05/27 10:29:11;;;;;;;1.48;0.52;;;19.80;37.60;;;;;;5096250;28;20641;-82
2023/05/27 10:31:48;;;;;;;0.70;0.38;;;19.90;37.90;;;;;;5103807;28;20206;-82
2023/05/27 10:34:15;;;;;;;0.40;0.32;;;19.80;37.80;;;;;;5104083;28;20629;-82
2023/05/27 10:36:41;;;;;;;0.45;0.40;;;19.90;37.80;;;;;;5120987;28;20532;-82
2023/05/27 10:39:16;;;;;;;1.25;0.50;;;19.80;37.60;;;;;;5119949;28;20654;-82
2023/05/27 10:41:43;;;;;;;0.50;0.50;;;19.90;37.80;;;;;;5102312;28;20171;-82
2023/05/27 10:44:10;;;;;;;0.77;0.50;;;19.90;37.70;;;;;;5119128;28;20171;-82
2023/05/27 10:46:43;;;;;;;1.65;0.52;;;19.90;37.70;;;;;;5102872;28;20179;-82
2023/05/27 10:49:12;;;;;;;0.50;0.40;;;19.90;37.90;;;;;;5119763;27;20185;-82
2023/05/27 10:51:38;;;;;;;0.65;0.55;;;19.90;37.70;;;;;;5119685;28;20184;-82
2023/05/27 10:54:05;;;;;;;1.00;0.50;;;20.00;37.60;;;;;;5099209;28;20168;-82
2023/05/27 10:56:30;;;;;;;1.58;0.40;;;19.90;37.50;;;;;;5101019;28;20156;-82
2023/05/27 10:58:56;;;;;;;0.88;0.60;;;19.90;37.50;;;;;;5083353;28;20181;-83
2023/05/27 11:01:21;;;;;;;0.77;0.50;;;19.90;37.50;;;;;;5101479;28;20165;-82
2023/05/27 11:03:49;;;;;;;0.70;0.40;;;19.90;37.50;;;;;;5093798;28;20183;-82
2023/05/27 11:06:24;;;;;;;0.82;0.60;;;19.90;37.50;;;;;;5119480;28;20164;-82
2023/05/27 11:08:50;;;;;;;0.30;0.30;;;19.90;37.50;;;;;;5120412;27;20156;-82
2023/05/27 11:11:16;;;;;;;0.50;0.50;;;19.90;37.70;;;;;;5115474;28;20184;-82
2023/05/27 11:13:44;;;;;;;1.15;0.70;;;19.90;37.80;;;;;;5080854;28;20206;-82
2023/05/27 11:16:11;;;;;;;2.28;0.50;;;19.80;37.80;;;;;;5100642;28;20153;-83
2023/05/27 11:18:46;;;;;;;0.80;0.45;;;19.80;37.70;;;;;;5084215;28;20164;-82
2023/05/27 11:21:12;;;;;;;0.77;0.40;;;19.90;37.70;;;;;;5094890;28;20173;-82
2023/05/27 11:23:48;;;;;;;0.43;0.40;;;19.90;37.80;;;;;;5089896;28;20183;-83
2023/05/27 11:26:16;;;;;;;1.00;0.85;;;19.90;37.90;;;;;;5098855;28;20215;-82
2023/05/27 11:29:04;;;;;;;0.50;0.43;;;19.90;37.90;;;;;;5089418;27;20171;-82
2023/05/27 11:31:30;;;;;;;0.30;0.30;;;19.90;38.00;;;;;;5141736;27;20186;-82
2023/05/27 11:34:01;;;;;;;0.50;0.50;;;19.80;38.10;;;;;;5125552;27;20173;-82
2023/05/27 11:36:27;;;;;;;0.52;0.43;;;19.80;38.10;;;;;;5143712;27;20155;-83
2023/05/27 11:39:00;;;;;;;0.50;0.38;;;19.80;38.20;;;;;;5122102;27;20171;-83
2023/05/27 11:41:28;;;;;;;0.80;0.50;;;19.70;38.30;;;;;;5121465;28;20166;-82
2023/05/27 11:44:03;;;;;;;1.10;0.50;;;19.70;38.70;;;;;;5100839;28;20159;-82
2023/05/27 11:46:44;;;;;;;1.25;0.60;;;19.70;38.80;;;;;;5092999;28;20258;-82
2023/05/27 11:49:12;;;;;;;0.45;0.40;;;19.60;39.00;;;;;;5115158;28;20826;-83
2023/05/27 11:51:40;;;;;;;0.77;0.47;;;19.70;39.10;;;;;;5103417;27;20195;-82
2023/05/27 11:54:05;;;;;;;0.55;0.40;;;19.70;39.10;;;;;;5121459;27;20146;-82
2023/05/27 11:56:31;;;;;;;0.65;0.52;;;19.70;39.10;;;;;;5121530;27;20199;-82
2023/05/27 11:58:57;;;;;;;0.30;0.30;;;19.70;39.20;;;;;;5122529;27;20569;-83
2023/05/27 12:01:25;;;;;;;0.40;0.30;;;19.70;39.30;;;;;;5121599;27;20156;-83
2023/05/27 12:03:50;;;;;;;0.50;0.50;;;19.70;39.40;;;;;;5120116;27;20152;-82
2023/05/27 12:06:16;;;;;;;0.80;0.60;;;19.70;39.40;;;;;;5118126;27;20163;-82
2023/05/27 12:08:42;;;;;;;1.50;0.40;;;19.60;39.40;;;;;;5116752;28;20160;-83
2023/05/27 12:11:08;;;;;;;0.65;0.50;;;19.70;39.60;;;;;;5137991;27;20653;-82
2023/05/27 12:13:33;;;;;;;0.68;0.43;;;19.70;39.80;;;;;;5118386;27;20156;-82
2023/05/27 12:16:03;;;;;;;0.63;0.40;;;19.60;39.80;;;;;;5138842;27;20155;-82
2023/05/27 12:18:29;;;;;;;0.57;0.55;;;19.70;39.90;;;;;;5127013;27;20144;-82
2023/05/27 12:20:55;;;;;;;0.88;0.45;;;19.70;40.00;;;;;;5109074;27;20160;-81
2023/05/27 12:23:21;;;;;;;0.55;0.50;;;19.70;40.10;;;;;;5145999;27;20159;-82
2023/05/27 12:25:46;;;;;;;0.40;0.40;;;19.80;40.20;;;;;;5126140;27;20152;-82
2023/05/27 12:28:12;;;;;;;0.80;0.52;;;19.70;40.30;;;;;;5104018;28;20240;-82
2023/05/27 12:30:38;;;;;;;0.40;0.40;;;19.70;40.40;;;;;;5102666;28;20200;-82
2023/05/27 12:33:05;;;;;;;1.42;0.43;;;19.70;40.50;;;;;;5078273;28;20169;-82
2023/05/27 12:35:31;;;;;;;0.40;0.40;;;19.80;40.60;;;;;;5078033;28;20183;-82
2023/05/27 12:37:57;;;;;;;0.70;0.50;;;19.70;40.60;;;;;;5078371;28;20611;-82
2023/05/27 12:40:23;;;;;;;1.05;0.70;;;19.70;40.50;;;;;;5095385;28;20149;-82
2023/05/27 12:42:49;;;;;;;1.58;0.60;;;19.70;40.60;;;;;;5094333;28;20206;-82
2023/05/27 12:45:14;;;;;;;0.68;0.50;;;19.70;40.70;;;;;;5093366;28;20160;-83